Hong Xiang 2 — BYBA — position and weather

sailwx.info

Track history (hours):
 
Tides and Currents Weather Stations Pressure Air Temp Water Temp Dewpoint Dewpoint Depression Visibility Wind Speed Wind Dir Waves Ship Positions

Hong Xiang 2

Last reported at 2016-Feb-12 02:33 UTC. Time now 2016-Feb-12 03:30 UTC.
Position N 23°17' E 116°48'.

Length 96 m; draft 4.8 m.

Type: Ship (hazmat cat A). MMSI: 413413000.

Date/timePositionNaut miles runAvg speedWind from/ knotsBaromVisibWave heightAir tempDewpointWater temp
2016-Feb-12 02:33N 23°17' E 116°48'10 9.5
2016-Feb-12 01:33N 23°20' E 116°38'9 8.8
2016-Feb-12 00:33N 23°26' E 116°31'  
2016-Feb-08 00:33N 23°26' E 116°29'6 6.5
2016-Feb-07 23:33N 23°22' E 116°34'3 2.8
2016-Feb-07 22:33N 23°21' E 116°37'0 0.0
2016-Feb-07 21:28N 23°21' E 116°37'0 0.0
2016-Feb-07 20:28N 23°21' E 116°37'0 0.0
2016-Feb-07 19:28N 23°21' E 116°37'0 0.1
2016-Feb-07 18:28N 23°21' E 116°37'0 0.0
2016-Feb-07 17:28N 23°21' E 116°37'0 0.0
2016-Feb-07 16:28N 23°21' E 116°37'0 0.1
2016-Feb-07 15:28N 23°21' E 116°37'0 0.0
2016-Feb-07 14:22N 23°21' E 116°37'0 0.0
2016-Feb-07 13:28N 23°21' E 116°37'0 0.1
2016-Feb-07 11:28N 23°21' E 116°37'0 0.0
2016-Feb-07 10:22N 23°21' E 116°37'0 0.0
2016-Feb-07 09:28N 23°21' E 116°37'0 0.0
2016-Feb-07 08:33N 23°21' E 116°37'7 6.9
2016-Feb-07 07:33N 23°20' E 116°44'5210.5
2016-Feb-07 02:33N 23°39' E 117°37'1010.4
2016-Feb-07 01:33N 23°46' E 117°46'22 9.9
2016-Feb-06 23:22N 23°60' E 118°05'9 9.9
2016-Feb-06 22:27N 24°05' E 118°13'1310.0
2016-Feb-06 21:08N 24°14' E 118°24'610.4
2016-Feb-06 20:33N 24°18' E 118°28'2711.1
2016-Feb-06 18:07N 24°36' E 118°51'711.8
2016-Feb-06 17:33N 24°40' E 118°56'1212.1
2016-Feb-06 16:33N 24°48' E 119°06'34011.7
2016-Feb-05 11:25N 29°39' E 122°24'46811.1
2016-Feb-03 17:13N 37°26' E 122°46'710.2
2016-Feb-03 16:31N 37°33' E 122°42'1110.3
2016-Feb-03 15:28N 37°42' E 122°35'6910.8
2016-Feb-03 09:07N 38°43' E 121°55'610.5
2016-Feb-03 08:34N 38°49' E 121°55'  
Track history (hours):
 
Tides and Currents Weather Stations Pressure Air Temp Water Temp Dewpoint Dewpoint Depression Visibility Wind Speed Wind Dir Waves Ship Positions

Hong Xiang 2

Last reported at 2016-Feb-12 02:33 UTC. Time now 2016-Feb-12 03:30 UTC.
Position N 23°17' E 116°48'.

Length 96 m; draft 4.8 m.

Type: Ship (hazmat cat A). MMSI: 413413000.

Date/timePositionNaut miles runAvg speedWind from/ knotsBaromVisibWave heightAir tempDewpointWater temp
2016-Feb-12 02:33N 23°17' E 116°48'10 9.5
2016-Feb-12 01:33N 23°20' E 116°38'9 8.8
2016-Feb-12 00:33N 23°26' E 116°31'  
2016-Feb-08 00:33N 23°26' E 116°29'6 6.5
2016-Feb-07 23:33N 23°22' E 116°34'3 2.8
2016-Feb-07 22:33N 23°21' E 116°37'0 0.0
2016-Feb-07 21:28N 23°21' E 116°37'0 0.0
2016-Feb-07 20:28N 23°21' E 116°37'0 0.0
2016-Feb-07 19:28N 23°21' E 116°37'0 0.1
2016-Feb-07 18:28N 23°21' E 116°37'0 0.0
2016-Feb-07 17:28N 23°21' E 116°37'0 0.0
2016-Feb-07 16:28N 23°21' E 116°37'0 0.1
2016-Feb-07 15:28N 23°21' E 116°37'0 0.0
2016-Feb-07 14:22N 23°21' E 116°37'0 0.0
2016-Feb-07 13:28N 23°21' E 116°37'0 0.1
2016-Feb-07 11:28N 23°21' E 116°37'0 0.0
2016-Feb-07 10:22N 23°21' E 116°37'0 0.0
2016-Feb-07 09:28N 23°21' E 116°37'0 0.0
2016-Feb-07 08:33N 23°21' E 116°37'7 6.9
2016-Feb-07 07:33N 23°20' E 116°44'5210.5
2016-Feb-07 02:33N 23°39' E 117°37'1010.4
2016-Feb-07 01:33N 23°46' E 117°46'22 9.9
2016-Feb-06 23:22N 23°60' E 118°05'9 9.9
2016-Feb-06 22:27N 24°05' E 118°13'1310.0
2016-Feb-06 21:08N 24°14' E 118°24'610.4
2016-Feb-06 20:33N 24°18' E 118°28'2711.1
2016-Feb-06 18:07N 24°36' E 118°51'711.8
2016-Feb-06 17:33N 24°40' E 118°56'1212.1
2016-Feb-06 16:33N 24°48' E 119°06'34011.7
2016-Feb-05 11:25N 29°39' E 122°24'46811.1
2016-Feb-03 17:13N 37°26' E 122°46'710.2
2016-Feb-03 16:31N 37°33' E 122°42'1110.3
2016-Feb-03 15:28N 37°42' E 122°35'6910.8
2016-Feb-03 09:07N 38°43' E 121°55'610.5
2016-Feb-03 08:34N 38°49' E 121°55'  

Dump ship's entire track history